Crown Point, New York
Current Conditions -  °F | °C
As of 3:55 PM on Saturday 25 Oct 2014 (Local Time) from K6B0 Reporting Station
Overcast Overcast  
Wind Chill: 57°   Ceiling: 5000
Heat Index: 57°   Visibility: 10mi
Dew Point: 44°   Wind: 8mph
Humidity: 62%   Direction: 170°S
Pressure: 29.6"   Gusts: NA
Location:  43.95°N, 73.44°W
Report Text: K6B0 251955Z AUTO 17007KT 10SM OVC050 14/07 A2960 RMK AO2 T01370065
Loading
Personal Weather Stations






























Interactive Weather Map
Tropical Storm Tracking
New forecast layout! Learn more

10-Day Weather Forecast

Advertisements
Track Severe Weather on mobile